createdAt,value
2018-12-19T00:00:50.061Z,-0.31
2018-12-19T00:05:56.321Z,-0.22
2018-12-19T00:11:01.870Z,-0.31
2018-12-19T00:16:06.180Z,-0.21
2018-12-19T00:21:10.346Z,-0.12
2018-12-19T00:26:14.239Z,-0.31
2018-12-19T00:31:20.010Z,-0.45
2018-12-19T00:36:25.968Z,-0.44
2018-12-19T00:41:30.210Z,-0.52
2018-12-19T00:46:34.408Z,-0.57
2018-12-19T00:51:38.886Z,-0.60
2018-12-19T00:56:42.710Z,-0.42
2018-12-19T01:01:46.624Z,-0.57
2018-12-19T01:06:50.841Z,-0.58
2018-12-19T01:11:54.616Z,-0.57
2018-12-19T01:16:58.493Z,-0.32
2018-12-19T01:22:02.637Z,-0.37
2018-12-19T01:27:06.558Z,-0.12
2018-12-19T01:32:10.553Z,-0.44
2018-12-19T01:37:14.500Z,-0.51
2018-12-19T01:42:18.433Z,-0.54
2018-12-19T01:47:22.668Z,-0.63
2018-12-19T01:52:26.689Z,-0.60
2018-12-19T01:57:30.581Z,-0.40
2018-12-19T02:02:34.427Z,-0.36
2018-12-19T02:07:38.350Z,-0.47
2018-12-19T02:12:42.287Z,-0.44
2018-12-19T02:17:47.292Z,-0.48
2018-12-19T02:22:51.396Z,-0.46
2018-12-19T02:27:55.336Z,-0.43
2018-12-19T02:32:59.169Z,-0.50
2018-12-19T02:38:02.933Z,-0.46
2018-12-19T02:43:07.020Z,-0.33
2018-12-19T02:48:10.918Z,-0.44
2018-12-19T02:53:14.889Z,-0.37
2018-12-19T02:58:18.822Z,-0.17
2018-12-19T03:03:22.638Z,-0.38
2018-12-19T03:08:26.655Z,-0.45
2018-12-19T03:13:31.048Z,-0.23
2018-12-19T03:18:35.090Z,-0.45
2018-12-19T03:23:39.402Z,-0.32
2018-12-19T03:28:43.095Z,-0.41
2018-12-19T03:33:47.041Z,-0.37
2018-12-19T03:38:50.852Z,-0.38
2018-12-19T03:43:54.694Z,-0.24
2018-12-19T03:48:58.496Z,-0.22
2018-12-19T03:54:02.200Z,-0.43
2018-12-19T03:59:05.913Z,-0.54
2018-12-19T04:04:09.675Z,-0.39
2018-12-19T04:09:13.539Z,-0.43
2018-12-19T04:14:17.353Z,0.01
2018-12-19T04:19:21.374Z,0.03
2018-12-19T04:24:27.391Z,-0.38
2018-12-19T04:29:31.475Z,-0.36
2018-12-19T04:34:35.409Z,-0.48
2018-12-19T04:39:39.299Z,-0.58
2018-12-19T04:44:43.169Z,-0.56
2018-12-19T04:49:47.229Z,-0.62
2018-12-19T04:54:51.242Z,-0.68
2018-12-19T04:59:55.009Z,-0.63
2018-12-19T05:04:58.789Z,-0.65
2018-12-19T05:10:02.934Z,-0.77
2018-12-19T05:15:06.866Z,-0.85
2018-12-19T05:20:11.758Z,-0.84
2018-12-19T05:25:15.716Z,-0.97
2018-12-19T05:30:21.150Z,-0.86
2018-12-19T05:35:24.972Z,-0.87
2018-12-19T05:40:28.873Z,-0.99
2018-12-19T05:45:32.702Z,-0.89
2018-12-19T05:50:37.030Z,-0.91
2018-12-19T05:55:40.811Z,-0.94
2018-12-19T06:00:44.667Z,-0.91
2018-12-19T06:05:50.613Z,-0.92
2018-12-19T06:10:54.452Z,-1.02
2018-12-19T06:15:58.318Z,-1.16
2018-12-19T06:21:02.561Z,-1.10
2018-12-19T06:26:06.527Z,-1.15
2018-12-19T06:31:11.524Z,-1.13
2018-12-19T06:36:15.698Z,-1.06
2018-12-19T06:41:19.610Z,-0.97
2018-12-19T06:46:23.522Z,-0.83
2018-12-19T06:51:27.629Z,-0.90
2018-12-19T06:56:31.403Z,-0.92
2018-12-19T07:01:35.339Z,-0.87
2018-12-19T07:06:39.079Z,-0.70
2018-12-19T07:11:42.854Z,-0.55
2018-12-19T07:16:46.570Z,-0.29
2018-12-19T07:21:50.473Z,-0.27
2018-12-19T07:26:54.402Z,-0.33
2018-12-19T07:31:58.158Z,-0.29
2018-12-19T07:37:02.045Z,-0.27
2018-12-19T07:42:06.416Z,-0.37
2018-12-19T07:47:10.155Z,-0.33
2018-12-19T07:52:14.033Z,-0.39
2018-12-19T07:57:17.932Z,-0.11
2018-12-19T08:02:21.730Z,-0.31
2018-12-19T08:07:25.489Z,-0.29
2018-12-19T08:12:35.790Z,-0.05
2018-12-19T08:17:35.495Z,-0.17
2018-12-19T08:22:39.376Z,-0.17
2018-12-19T08:27:43.393Z,-0.27
2018-12-19T08:32:47.168Z,-0.22
2018-12-19T08:37:50.957Z,-0.43
2018-12-19T08:42:54.744Z,-0.42
2018-12-19T08:47:58.471Z,-0.40
2018-12-19T08:53:02.309Z,-0.26
2018-12-19T08:58:06.303Z,-0.20
2018-12-19T09:03:10.934Z,-0.19
2018-12-19T09:08:14.905Z,-0.14
2018-12-19T09:13:18.761Z,-0.05
2018-12-19T09:18:22.745Z,0.10
2018-12-19T09:23:26.638Z,0.19
2018-12-19T09:28:31.526Z,0.06
2018-12-19T09:33:35.493Z,0.18
2018-12-19T09:38:41.069Z,0.02
2018-12-19T09:43:44.872Z,0.06
2018-12-19T09:48:48.663Z,-0.01
2018-12-19T09:53:52.430Z,-0.07
2018-12-19T09:58:56.265Z,-0.17
2018-12-19T10:03:59.969Z,-0.36
2018-12-19T10:09:07.632Z,-0.38
2018-12-19T10:14:13.544Z,-0.34
2018-12-19T10:19:17.316Z,-0.38
2018-12-19T10:24:25.820Z,-0.53
2018-12-19T10:29:29.750Z,-0.40
2018-12-19T10:34:33.639Z,-0.39
2018-12-19T10:39:37.621Z,-0.30
2018-12-19T10:44:41.631Z,-0.24
2018-12-19T10:49:45.721Z,-0.16
2018-12-19T10:54:49.449Z,-0.43
2018-12-19T10:59:53.292Z,-0.38
2018-12-19T11:04:57.290Z,-0.29
2018-12-19T11:10:01.021Z,-0.12
2018-12-19T11:15:08.462Z,-0.26
2018-12-19T11:20:12.151Z,0.00
2018-12-19T11:25:16.015Z,-0.05
2018-12-19T11:30:19.802Z,-0.16
2018-12-19T11:35:23.599Z,-0.20
2018-12-19T11:40:27.403Z,-0.13
2018-12-19T11:45:31.348Z,-0.04
2018-12-19T11:50:35.322Z,0.10
2018-12-19T11:55:39.138Z,-0.05
2018-12-19T12:00:42.899Z,-0.09
2018-12-19T12:05:46.741Z,-0.18
2018-12-19T12:10:50.719Z,-0.13
2018-12-19T12:15:54.439Z,0.22
2018-12-19T12:20:58.526Z,0.02
2018-12-19T12:26:02.542Z,0.26
2018-12-19T12:31:06.604Z,0.58
2018-12-19T12:36:10.540Z,0.63
2018-12-19T12:41:15.049Z,0.54
2018-12-19T12:46:19.320Z,0.34
2018-12-19T12:51:23.308Z,0.19
2018-12-19T12:56:27.270Z,0.12
2018-12-19T13:01:31.297Z,0.10
2018-12-19T13:06:35.125Z,0.16
2018-12-19T13:11:39.359Z,0.25
2018-12-19T13:16:43.209Z,0.45
2018-12-19T13:21:47.128Z,0.58
2018-12-19T13:26:51.149Z,0.44
2018-12-19T13:31:55.369Z,0.62
2018-12-19T13:36:59.605Z,0.88
2018-12-19T13:42:05.719Z,0.92
2018-12-19T13:47:09.253Z,0.69
2018-12-19T13:52:13.254Z,0.90
2018-12-19T13:57:17.226Z,0.84
2018-12-19T14:02:21.390Z,0.79
2018-12-19T14:07:25.123Z,0.43
2018-12-19T14:12:29.283Z,0.67
2018-12-19T14:17:33.142Z,0.75
2018-12-19T14:22:36.992Z,0.80
2018-12-19T14:27:40.862Z,0.75
2018-12-19T14:32:44.928Z,0.79
2018-12-19T14:37:48.795Z,0.77
2018-12-19T14:42:52.672Z,0.71
2018-12-19T14:47:56.590Z,0.70
2018-12-19T14:53:00.524Z,0.71
2018-12-19T14:58:04.696Z,0.65
2018-12-19T15:03:08.699Z,0.58
2018-12-19T15:08:12.704Z,0.62
2018-12-19T15:13:16.678Z,0.58
2018-12-19T15:18:20.510Z,0.42
2018-12-19T15:23:24.328Z,0.39
2018-12-19T15:28:28.097Z,0.45
2018-12-19T15:33:32.089Z,0.58
2018-12-19T15:38:36.110Z,0.56
2018-12-19T15:43:40.045Z,0.47
2018-12-19T15:48:43.818Z,0.63
2018-12-19T15:53:47.689Z,0.64
2018-12-19T15:58:51.515Z,0.62
2018-12-19T16:03:55.413Z,0.69
2018-12-19T16:08:59.231Z,0.79
2018-12-19T16:14:03.293Z,0.74
2018-12-19T16:19:10.831Z,0.71
2018-12-19T16:24:14.965Z,0.78
2018-12-19T16:29:18.857Z,0.96
2018-12-19T16:34:23.562Z,0.87
2018-12-19T16:39:27.260Z,0.90
2018-12-19T16:44:31.623Z,0.78
2018-12-19T16:49:35.583Z,0.87
2018-12-19T16:54:39.634Z,0.92
2018-12-19T16:59:43.479Z,0.99
2018-12-19T17:04:47.717Z,0.96
2018-12-19T17:09:51.857Z,1.05
2018-12-19T17:14:55.718Z,1.09
2018-12-19T17:19:59.879Z,1.10
2018-12-19T17:25:03.738Z,1.19
2018-12-19T17:30:07.632Z,1.17
2018-12-19T17:35:16.445Z,1.06
2018-12-19T17:40:20.483Z,1.15
2018-12-19T17:45:24.867Z,1.19
2018-12-19T17:50:28.834Z,0.96
2018-12-19T17:55:33.719Z,0.87
2018-12-19T18:00:37.603Z,0.83
2018-12-19T18:05:43.293Z,0.74
2018-12-19T18:10:47.105Z,0.66
2018-12-19T18:15:52.169Z,0.66
2018-12-19T18:20:56.050Z,0.62
2018-12-19T18:25:59.930Z,0.66
2018-12-19T18:31:04.022Z,0.72
2018-12-19T18:36:07.922Z,0.77
2018-12-19T18:41:11.883Z,0.76
2018-12-19T18:46:15.826Z,0.85
2018-12-19T18:51:20.031Z,0.81
2018-12-19T18:56:23.817Z,0.77
2018-12-19T19:01:29.772Z,0.66
2018-12-19T19:06:34.582Z,0.82
2018-12-19T19:11:38.623Z,0.76
2018-12-19T19:16:42.385Z,0.83
2018-12-19T19:21:46.280Z,0.84
2018-12-19T19:26:53.473Z,0.73
2018-12-19T19:31:57.725Z,0.73
2018-12-19T19:37:01.611Z,0.71
2018-12-19T19:42:05.722Z,0.69
2018-12-19T19:47:11.351Z,0.60
2018-12-19T19:52:16.743Z,0.56
2018-12-19T19:57:20.731Z,-0.18
2018-12-19T20:02:24.500Z,-0.80
2018-12-19T20:07:30.635Z,-1.18
2018-12-19T20:12:34.823Z,-1.34
2018-12-19T20:17:38.639Z,-1.46
2018-12-19T20:22:43.656Z,-1.63
2018-12-19T20:27:48.529Z,-1.64
2018-12-19T20:32:52.764Z,-1.72
2018-12-19T20:37:56.749Z,-1.76
2018-12-19T20:43:06.394Z,-1.83
2018-12-19T20:48:06.282Z,-1.77
2018-12-19T20:53:11.676Z,-1.79
2018-12-19T20:58:15.490Z,-1.93
2018-12-19T21:03:19.238Z,-1.94
2018-12-19T21:08:25.818Z,-1.98
2018-12-19T21:13:30.254Z,-1.97
2018-12-19T21:18:45.645Z,-2.00
2018-12-19T21:23:50.095Z,-1.96
2018-12-19T21:28:54.044Z,-1.95
2018-12-19T21:33:57.904Z,-1.97
2018-12-19T21:39:06.376Z,-2.00
2018-12-19T21:44:11.310Z,-2.01
2018-12-19T21:49:15.105Z,-2.04
2018-12-19T21:54:18.964Z,-2.07
2018-12-19T21:59:23.857Z,-2.11
2018-12-19T22:04:27.666Z,-2.16
2018-12-19T22:09:33.521Z,-2.18
2018-12-19T22:14:37.619Z,-2.21
2018-12-19T22:19:41.412Z,-2.27
2018-12-19T22:24:45.265Z,-2.41
2018-12-19T22:29:49.221Z,-2.44
2018-12-19T22:34:53.027Z,-2.42
2018-12-19T22:39:57.138Z,-2.48
2018-12-19T22:45:01.334Z,-2.40
2018-12-19T22:50:06.231Z,-2.46
2018-12-19T22:55:10.068Z,-2.48
2018-12-19T23:00:17.329Z,-2.52
2018-12-19T23:05:28.789Z,-2.49
2018-12-19T23:10:32.757Z,-2.69
2018-12-19T23:15:36.527Z,-2.78
2018-12-19T23:20:46.834Z,-2.71
2018-12-19T23:25:56.803Z,-2.64
2018-12-19T23:31:02.814Z,-2.62
2018-12-19T23:36:06.717Z,-2.66
2018-12-19T23:41:10.694Z,-2.68
2018-12-19T23:46:14.935Z,-2.76
2018-12-19T23:51:19.006Z,-2.79
2018-12-19T23:56:22.905Z,-2.89
